createdAt,value
2023-01-07T00:00:54.498Z,8.33
2023-01-07T00:03:37.264Z,8.46
2023-01-07T00:06:28.511Z,8.67
2023-01-07T00:09:13.255Z,8.45
2023-01-07T00:12:08.117Z,8.36
2023-01-07T00:14:56.534Z,8.45
2023-01-07T00:17:38.251Z,8.29
2023-01-07T00:20:26.514Z,8.44
2023-01-07T00:23:08.697Z,8.33
2023-01-07T00:25:56.601Z,8.43
2023-01-07T00:28:39.277Z,8.36
2023-01-07T00:31:31.639Z,8.24
2023-01-07T00:34:15.244Z,8.25
2023-01-07T00:37:24.194Z,8.39
2023-01-07T00:40:13.138Z,8.47
2023-01-07T00:43:17.212Z,8.36
2023-01-07T00:46:06.242Z,8.24
2023-01-07T00:48:48.561Z,8.25
2023-01-07T00:51:38.292Z,8.22
2023-01-07T00:54:30.248Z,8.17
2023-01-07T00:57:21.109Z,8.14
2023-01-07T01:00:03.584Z,8.22
2023-01-07T01:02:52.283Z,8.19
2023-01-07T01:05:34.540Z,8.08
2023-01-07T01:08:23.122Z,8.19
2023-01-07T01:11:14.592Z,8.29
2023-01-07T01:14:03.273Z,8.20
2023-01-07T01:16:53.302Z,8.20
2023-01-07T01:19:41.631Z,8.18
2023-01-07T01:22:27.178Z,8.18
2023-01-07T01:25:10.248Z,8.09
2023-01-07T01:27:59.309Z,8.03
2023-01-07T01:30:41.440Z,8.06
2023-01-07T01:33:30.146Z,8.01
2023-01-07T01:36:20.609Z,7.95
2023-01-07T01:39:06.129Z,7.96
2023-01-07T01:41:55.954Z,7.91
2023-01-07T01:45:00.269Z,7.67
2023-01-07T01:48:00.249Z,7.74
2023-01-07T01:51:01.227Z,7.75
2023-01-07T01:53:43.884Z,7.77
2023-01-07T01:56:45.133Z,7.72
2023-01-07T01:59:39.244Z,7.70
2023-01-07T02:02:27.504Z,7.83
2023-01-07T02:05:16.254Z,7.59
2023-01-07T02:08:05.203Z,7.71
2023-01-07T02:11:10.177Z,7.50
2023-01-07T02:14:10.288Z,7.50
2023-01-07T02:17:07.469Z,7.61
2023-01-07T02:20:27.143Z,7.64
2023-01-07T02:23:16.232Z,7.61
2023-01-07T02:26:17.525Z,7.64
2023-01-07T02:29:30.127Z,7.51
2023-01-07T02:32:21.512Z,7.55
2023-01-07T02:35:18.222Z,7.44
2023-01-07T02:38:14.072Z,7.51
2023-01-07T02:41:28.073Z,7.75
2023-01-07T02:44:37.116Z,7.63
2023-01-07T02:47:28.136Z,7.55
2023-01-07T02:50:17.534Z,7.67
2023-01-07T02:52:59.194Z,7.51
2023-01-07T02:56:27.067Z,7.52
2023-01-07T02:59:51.055Z,7.49
2023-01-07T03:02:43.159Z,7.63
2023-01-07T03:06:08.595Z,7.47
2023-01-07T03:08:51.176Z,7.54
2023-01-07T03:11:52.527Z,7.63
2023-01-07T03:14:50.107Z,7.54
2023-01-07T03:17:55.475Z,7.79
2023-01-07T03:20:42.246Z,7.58
2023-01-07T03:23:27.874Z,7.77
2023-01-07T03:26:20.217Z,7.73
2023-01-07T03:29:06.286Z,7.68
2023-01-07T03:32:05.191Z,7.83
2023-01-07T03:34:54.557Z,7.94
2023-01-07T03:37:39.059Z,7.85
2023-01-07T03:40:29.168Z,8.10
2023-01-07T03:43:22.507Z,8.21
2023-01-07T03:46:07.392Z,7.91
2023-01-07T03:48:55.483Z,7.89
2023-01-07T03:51:39.280Z,7.93
2023-01-07T03:54:28.443Z,8.21
2023-01-07T03:57:11.169Z,8.34
2023-01-07T04:00:00.148Z,8.24
2023-01-07T04:02:57.198Z,8.03
2023-01-07T04:05:44.453Z,8.04
2023-01-07T04:08:34.254Z,8.16
2023-01-07T04:11:22.498Z,8.30
2023-01-07T04:14:08.133Z,8.22
2023-01-07T04:17:01.238Z,7.98
2023-01-07T04:19:43.519Z,8.05
2023-01-07T04:22:32.160Z,8.17
2023-01-07T04:25:23.195Z,8.21
2023-01-07T04:28:12.066Z,8.16
2023-01-07T04:31:01.273Z,8.23
2023-01-07T04:33:45.376Z,8.42
2023-01-07T04:36:35.185Z,8.33
2023-01-07T04:39:27.356Z,8.27
2023-01-07T04:42:15.571Z,8.36
2023-01-07T04:44:58.135Z,8.51
2023-01-07T04:47:47.171Z,8.80
2023-01-07T04:50:36.199Z,8.58
2023-01-07T04:53:24.419Z,8.67
2023-01-07T04:56:06.245Z,8.74
2023-01-07T04:58:55.191Z,8.70
2023-01-07T05:01:44.282Z,8.60
2023-01-07T05:04:26.392Z,8.74
2023-01-07T05:07:15.173Z,8.75
2023-01-07T05:09:57.355Z,8.72
2023-01-07T05:12:53.090Z,8.82
2023-01-07T05:15:42.107Z,8.91
2023-01-07T05:18:25.493Z,9.06
2023-01-07T05:21:14.219Z,9.07
2023-01-07T05:23:56.508Z,9.18
2023-01-07T05:26:45.245Z,9.55
2023-01-07T05:29:35.106Z,9.40
2023-01-07T05:32:24.139Z,9.16
2023-01-07T05:35:06.492Z,8.99
2023-01-07T05:37:56.123Z,9.33
2023-01-07T05:40:46.963Z,9.18
2023-01-07T05:43:40.495Z,9.24
2023-01-07T05:46:22.147Z,9.43
2023-01-07T05:49:11.511Z,9.54
2023-01-07T05:51:54.181Z,9.74
2023-01-07T05:54:36.500Z,9.89
2023-01-07T05:57:25.042Z,9.88
2023-01-07T06:00:08.086Z,10.12
2023-01-07T06:02:57.235Z,10.21
2023-01-07T06:05:45.598Z,10.08
2023-01-07T06:08:28.138Z,10.21
2023-01-07T06:11:10.443Z,10.63
2023-01-07T06:13:59.220Z,11.11
2023-01-07T06:16:49.637Z,11.28
2023-01-07T06:19:32.061Z,11.06
2023-01-07T06:22:21.319Z,11.07
2023-01-07T06:25:03.544Z,10.98
2023-01-07T06:27:52.136Z,10.85
2023-01-07T06:30:34.549Z,10.96
2023-01-07T06:33:25.051Z,11.16
2023-01-07T06:36:07.393Z,11.35
2023-01-07T06:38:56.080Z,11.65
2023-01-07T06:41:50.986Z,11.59
2023-01-07T06:44:40.080Z,11.43
2023-01-07T06:47:22.474Z,11.83
2023-01-07T06:50:11.102Z,12.28
2023-01-07T06:52:54.019Z,11.94
2023-01-07T06:55:43.217Z,11.65
2023-01-07T06:58:26.546Z,12.03
2023-01-07T07:01:16.264Z,12.18
2023-01-07T07:03:58.588Z,12.25
2023-01-07T07:06:47.227Z,12.26
2023-01-07T07:09:29.603Z,12.49
2023-01-07T07:12:19.225Z,12.84
2023-01-07T07:15:01.513Z,12.83
2023-01-07T07:17:50.284Z,12.85
2023-01-07T07:20:39.134Z,12.85
2023-01-07T07:23:21.444Z,12.75
2023-01-07T07:26:10.123Z,12.58
2023-01-07T07:28:58.458Z,12.77
2023-01-07T07:31:40.269Z,12.97
2023-01-07T07:34:29.180Z,12.99
2023-01-07T07:37:11.401Z,12.68
2023-01-07T07:40:00.248Z,12.70
2023-01-07T07:43:10.577Z,12.59
2023-01-07T07:45:51.167Z,12.68
2023-01-07T07:48:40.606Z,12.64
2023-01-07T07:51:22.219Z,12.59
2023-01-07T07:54:10.395Z,12.60
2023-01-07T07:56:52.124Z,12.90
2023-01-07T07:59:40.416Z,12.83
2023-01-07T08:02:23.253Z,12.78
2023-01-07T08:05:05.618Z,12.94
2023-01-07T08:07:54.218Z,13.09
2023-01-07T08:10:36.945Z,13.24
2023-01-07T08:13:27.088Z,13.34
2023-01-07T08:16:16.215Z,13.38
2023-01-07T08:19:05.157Z,13.49
2023-01-07T08:21:54.065Z,13.66
2023-01-07T08:24:37.092Z,13.77
2023-01-07T08:27:26.149Z,13.77
2023-01-07T08:30:15.043Z,13.87
2023-01-07T08:33:09.058Z,13.90
2023-01-07T08:35:52.541Z,13.83
2023-01-07T08:38:41.320Z,14.09
2023-01-07T08:41:37.959Z,14.12
2023-01-07T08:44:27.156Z,14.04
2023-01-07T08:47:09.560Z,14.11
2023-01-07T08:49:58.165Z,14.19
2023-01-07T08:52:42.004Z,13.97
2023-01-07T08:55:31.515Z,13.65
2023-01-07T08:58:13.510Z,13.57
2023-01-07T09:01:02.292Z,13.63
2023-01-07T09:03:44.607Z,13.63
2023-01-07T09:06:33.042Z,13.42
2023-01-07T09:09:17.618Z,13.46
2023-01-07T09:12:06.098Z,13.23
2023-01-07T09:14:48.424Z,13.09
2023-01-07T09:17:37.058Z,13.20
2023-01-07T09:20:19.589Z,13.38
2023-01-07T09:23:08.093Z,13.37
2023-01-07T09:25:50.488Z,13.15
2023-01-07T09:28:39.191Z,13.04
2023-01-07T09:31:21.423Z,13.14
2023-01-07T09:34:11.181Z,13.23
2023-01-07T09:36:53.456Z,13.18
2023-01-07T09:39:42.167Z,13.10
2023-01-07T09:42:39.443Z,13.12
2023-01-07T09:45:27.203Z,12.92
2023-01-07T09:48:24.957Z,12.97
2023-01-07T09:51:23.237Z,12.98
2023-01-07T09:54:22.968Z,12.89
2023-01-07T09:57:12.097Z,12.80
2023-01-07T09:59:54.325Z,12.56
2023-01-07T10:02:59.129Z,12.52
2023-01-07T10:06:02.707Z,12.49
2023-01-07T10:08:47.103Z,12.48
2023-01-07T10:12:08.100Z,12.45
2023-01-07T10:15:10.661Z,12.28
2023-01-07T10:18:10.463Z,12.25
2023-01-07T10:21:14.063Z,12.02
2023-01-07T10:24:11.142Z,12.00
2023-01-07T10:26:57.859Z,11.92
2023-01-07T10:30:03.050Z,11.67
2023-01-07T10:32:56.847Z,11.54
2023-01-07T10:35:45.292Z,11.63
2023-01-07T10:38:53.002Z,11.66
2023-01-07T10:42:29.033Z,11.78
2023-01-07T10:45:25.502Z,11.77
2023-01-07T10:48:41.133Z,11.79
2023-01-07T10:52:02.551Z,12.08
2023-01-07T10:55:13.124Z,11.84
2023-01-07T10:58:03.048Z,11.82
2023-01-07T11:00:55.489Z,11.75
2023-01-07T11:03:38.194Z,11.71
2023-01-07T11:06:27.364Z,11.55
2023-01-07T11:09:19.186Z,11.66
2023-01-07T11:12:06.667Z,11.54
2023-01-07T11:14:55.989Z,11.52
2023-01-07T11:17:57.121Z,11.56
2023-01-07T11:21:43.191Z,11.44
2023-01-07T11:24:35.595Z,11.51
2023-01-07T11:27:26.127Z,11.55
2023-01-07T11:30:28.123Z,11.44
2023-01-07T11:33:22.134Z,11.55
2023-01-07T11:36:05.604Z,11.61
2023-01-07T11:38:55.181Z,11.54
2023-01-07T11:41:50.030Z,11.45
2023-01-07T11:44:39.174Z,11.31
2023-01-07T11:47:25.392Z,11.36
2023-01-07T11:50:17.173Z,11.32
2023-01-07T11:53:09.447Z,11.21
2023-01-07T11:56:09.079Z,11.16
2023-01-07T11:58:54.626Z,11.05
2023-01-07T12:01:54.515Z,10.96
2023-01-07T12:04:42.409Z,10.99
2023-01-07T12:07:32.051Z,11.04
2023-01-07T12:10:33.465Z,10.97
2023-01-07T12:13:33.175Z,10.92
2023-01-07T12:16:23.046Z,11.12
2023-01-07T12:19:50.091Z,11.21
2023-01-07T12:22:58.444Z,11.40
2023-01-07T12:26:13.003Z,11.59
2023-01-07T12:29:23.135Z,11.54
2023-01-07T12:32:40.123Z,11.60
2023-01-07T12:35:32.108Z,11.73
2023-01-07T12:38:26.505Z,11.95
2023-01-07T12:41:28.071Z,11.72
2023-01-07T12:44:20.474Z,11.83
2023-01-07T12:47:32.077Z,11.68
2023-01-07T12:50:37.215Z,11.99
2023-01-07T12:53:33.074Z,11.85
2023-01-07T12:56:46.110Z,11.96
2023-01-07T12:59:52.597Z,11.61
2023-01-07T13:03:02.168Z,11.45
2023-01-07T13:06:06.961Z,11.41
2023-01-07T13:09:06.067Z,11.46
2023-01-07T13:12:40.537Z,11.23
2023-01-07T13:15:41.129Z,11.13
2023-01-07T13:18:25.684Z,11.11
2023-01-07T13:21:19.127Z,11.44
2023-01-07T13:24:13.556Z,11.42
2023-01-07T13:27:47.014Z,11.27
2023-01-07T13:31:11.148Z,11.34
2023-01-07T13:34:12.424Z,11.45
2023-01-07T13:37:08.169Z,11.54
2023-01-07T13:40:07.779Z,11.72
2023-01-07T13:43:07.234Z,11.36
2023-01-07T13:46:04.715Z,11.59
2023-01-07T13:48:56.152Z,11.69
2023-01-07T13:51:46.557Z,11.70
2023-01-07T13:55:01.003Z,11.58
2023-01-07T13:57:52.218Z,11.55
2023-01-07T14:00:53.558Z,11.46
2023-01-07T14:04:01.192Z,11.17
2023-01-07T14:06:58.546Z,11.18
2023-01-07T14:09:49.390Z,11.40
2023-01-07T14:13:03.554Z,11.68
2023-01-07T14:16:01.111Z,11.55
2023-01-07T14:18:52.922Z,11.40
2023-01-07T14:22:09.162Z,11.42
2023-01-07T14:24:57.555Z,11.52
2023-01-07T14:28:23.170Z,11.21
2023-01-07T14:31:06.383Z,11.11
2023-01-07T14:34:01.200Z,11.47
2023-01-07T14:37:10.045Z,11.09
2023-01-07T14:39:59.047Z,11.24
2023-01-07T14:42:52.784Z,11.14
2023-01-07T14:45:45.016Z,11.25
2023-01-07T14:48:41.469Z,10.93
2023-01-07T14:51:42.124Z,10.77
2023-01-07T14:54:39.107Z,10.90
2023-01-07T14:57:51.395Z,10.66
2023-01-07T15:01:13.283Z,10.62
2023-01-07T15:04:30.837Z,10.94
2023-01-07T15:07:25.143Z,10.53
2023-01-07T15:10:51.509Z,10.88
2023-01-07T15:13:52.108Z,11.04
2023-01-07T15:16:38.925Z,10.52
2023-01-07T15:19:22.657Z,10.62
2023-01-07T15:22:32.440Z,10.40
2023-01-07T15:25:52.112Z,10.80
2023-01-07T15:28:34.591Z,11.04
2023-01-07T15:31:38.054Z,11.06
2023-01-07T15:34:24.557Z,11.21
2023-01-07T15:37:13.995Z,10.82
2023-01-07T15:40:02.438Z,11.01
2023-01-07T15:42:52.954Z,10.66
2023-01-07T15:45:36.367Z,10.78
2023-01-07T15:48:25.107Z,10.96
2023-01-07T15:51:14.048Z,10.57
2023-01-07T15:53:57.179Z,10.29
2023-01-07T15:56:46.115Z,10.56
2023-01-07T15:59:32.242Z,10.82
2023-01-07T16:02:40.022Z,10.52
2023-01-07T16:05:29.520Z,10.62
2023-01-07T16:08:12.142Z,10.80
2023-01-07T16:11:11.396Z,10.99
2023-01-07T16:14:04.056Z,11.14
2023-01-07T16:16:46.547Z,11.22
2023-01-07T16:19:36.038Z,11.11
2023-01-07T16:22:29.378Z,10.94
2023-01-07T16:25:17.073Z,10.87
2023-01-07T16:28:06.676Z,10.95
2023-01-07T16:30:51.054Z,11.12
2023-01-07T16:33:41.315Z,11.12
2023-01-07T16:36:28.042Z,10.75
2023-01-07T16:39:37.096Z,10.95
2023-01-07T16:42:34.927Z,10.69
2023-01-07T16:45:36.022Z,10.50
2023-01-07T16:48:29.312Z,10.75
2023-01-07T16:51:44.096Z,10.79
2023-01-07T16:54:35.632Z,10.73
2023-01-07T16:57:24.207Z,10.88
2023-01-07T17:00:09.398Z,10.70
2023-01-07T17:03:06.983Z,10.45
2023-01-07T17:05:56.125Z,10.40
2023-01-07T17:08:38.442Z,10.85
2023-01-07T17:11:38.070Z,11.03
2023-01-07T17:14:38.035Z,10.80
2023-01-07T17:17:33.024Z,10.60
2023-01-07T17:20:25.561Z,10.81
2023-01-07T17:23:08.298Z,10.78
2023-01-07T17:25:57.535Z,11.07
2023-01-07T17:28:44.022Z,10.99
2023-01-07T17:31:26.594Z,11.04
2023-01-07T17:34:14.928Z,11.04
2023-01-07T17:37:05.107Z,10.97
2023-01-07T17:39:48.285Z,11.01
2023-01-07T17:43:06.995Z,11.01
2023-01-07T17:45:56.439Z,11.00
2023-01-07T17:48:38.966Z,10.90
2023-01-07T17:51:29.154Z,10.95
2023-01-07T17:54:11.363Z,10.98
2023-01-07T17:57:00.033Z,10.72
2023-01-07T17:59:48.279Z,10.83
2023-01-07T18:02:38.164Z,10.70
2023-01-07T18:05:28.663Z,10.72
2023-01-07T18:08:19.029Z,10.58
2023-01-07T18:11:21.113Z,10.48
2023-01-07T18:14:10.179Z,10.97
2023-01-07T18:16:53.662Z,10.79
2023-01-07T18:19:43.127Z,10.67
2023-01-07T18:22:26.781Z,10.70
2023-01-07T18:25:24.375Z,10.61
2023-01-07T18:28:06.890Z,10.38
2023-01-07T18:30:57.287Z,10.40
2023-01-07T18:33:39.789Z,10.38
2023-01-07T18:36:29.368Z,10.15
2023-01-07T18:39:13.663Z,10.38
2023-01-07T18:42:02.996Z,10.42
2023-01-07T18:44:58.264Z,10.61
2023-01-07T18:47:40.512Z,10.31
2023-01-07T18:50:32.239Z,10.33
2023-01-07T18:53:22.001Z,10.34
2023-01-07T18:56:12.960Z,10.43
2023-01-07T18:59:03.004Z,10.27
2023-01-07T19:01:52.091Z,10.26
2023-01-07T19:04:45.145Z,10.16
2023-01-07T19:07:28.509Z,10.18
2023-01-07T19:10:18.382Z,10.19
2023-01-07T19:13:01.607Z,10.25
2023-01-07T19:15:50.971Z,10.07
2023-01-07T19:18:40.299Z,10.21
2023-01-07T19:21:29.109Z,9.90
2023-01-07T19:24:11.837Z,9.67
2023-01-07T19:27:01.188Z,9.59
2023-01-07T19:29:44.350Z,9.45
2023-01-07T19:32:33.001Z,9.41
2023-01-07T19:35:16.919Z,9.36
2023-01-07T19:38:06.247Z,9.21
2023-01-07T19:41:01.059Z,9.27
2023-01-07T19:43:59.903Z,9.27
2023-01-07T19:46:50.212Z,9.43
2023-01-07T19:49:32.709Z,9.56
2023-01-07T19:52:21.938Z,9.38
2023-01-07T19:55:04.576Z,9.26
2023-01-07T19:57:54.145Z,9.29
2023-01-07T20:00:44.569Z,9.37
2023-01-07T20:03:33.037Z,9.28
2023-01-07T20:06:25.606Z,9.29
2023-01-07T20:09:19.158Z,9.35
2023-01-07T20:12:01.715Z,9.25
2023-01-07T20:14:53.043Z,9.26
2023-01-07T20:17:35.304Z,9.36
2023-01-07T20:20:24.115Z,9.31
2023-01-07T20:23:07.375Z,9.35
2023-01-07T20:25:56.089Z,9.20
2023-01-07T20:28:38.635Z,9.23
2023-01-07T20:31:30.406Z,9.45
2023-01-07T20:34:12.397Z,9.64
2023-01-07T20:37:01.970Z,9.26
2023-01-07T20:39:44.347Z,9.47
2023-01-07T20:42:33.100Z,9.55
2023-01-07T20:45:22.339Z,9.53
2023-01-07T20:48:06.011Z,9.47
2023-01-07T20:50:55.005Z,9.18
2023-01-07T20:53:37.332Z,9.25
2023-01-07T20:56:29.074Z,9.40
2023-01-07T20:59:13.515Z,9.28
2023-01-07T21:02:02.131Z,9.35
2023-01-07T21:04:44.312Z,9.29
2023-01-07T21:07:33.030Z,9.05
2023-01-07T21:10:15.363Z,9.14
2023-01-07T21:13:04.024Z,9.37
2023-01-07T21:15:52.887Z,9.24
2023-01-07T21:18:35.379Z,9.41
2023-01-07T21:21:27.011Z,9.33
2023-01-07T21:24:18.047Z,9.60
2023-01-07T21:26:59.928Z,9.82
2023-01-07T21:29:49.257Z,9.75
2023-01-07T21:32:30.972Z,9.37
2023-01-07T21:35:13.806Z,9.34
2023-01-07T21:38:03.072Z,9.20
2023-01-07T21:40:51.972Z,9.22
2023-01-07T21:43:46.865Z,9.11
2023-01-07T21:46:36.061Z,8.88
2023-01-07T21:49:20.166Z,9.18
2023-01-07T21:52:09.072Z,9.09
2023-01-07T21:54:52.983Z,8.80
2023-01-07T21:57:47.025Z,8.88
2023-01-07T22:00:29.285Z,8.83
2023-01-07T22:03:18.054Z,8.95
2023-01-07T22:06:36.024Z,9.09
2023-01-07T22:09:18.259Z,8.61
2023-01-07T22:12:06.915Z,8.66
2023-01-07T22:14:49.175Z,8.52
2023-01-07T22:17:38.067Z,8.67
2023-01-07T22:20:20.293Z,8.55
2023-01-07T22:23:08.994Z,8.34
2023-01-07T22:25:57.913Z,8.23
2023-01-07T22:28:48.035Z,8.77
2023-01-07T22:31:41.528Z,8.52
2023-01-07T22:34:23.852Z,8.30
2023-01-07T22:37:27.827Z,8.20
2023-01-07T22:40:14.041Z,8.27
2023-01-07T22:43:15.866Z,8.70
2023-01-07T22:46:11.057Z,8.48
2023-01-07T22:48:59.909Z,8.77
2023-01-07T22:51:54.911Z,8.63
2023-01-07T22:54:39.230Z,8.74
2023-01-07T22:57:29.715Z,8.56
2023-01-07T23:00:14.287Z,8.50
2023-01-07T23:03:03.019Z,8.55
2023-01-07T23:05:45.291Z,8.28
2023-01-07T23:08:34.046Z,8.13
2023-01-07T23:11:36.206Z,8.56
2023-01-07T23:14:27.941Z,8.62
2023-01-07T23:17:11.752Z,8.55
2023-01-07T23:20:00.862Z,8.67
2023-01-07T23:22:43.225Z,8.76
2023-01-07T23:25:31.985Z,8.49
2023-01-07T23:28:14.323Z,8.25
2023-01-07T23:31:02.861Z,8.71
2023-01-07T23:33:45.381Z,8.37
2023-01-07T23:36:34.045Z,8.35
2023-01-07T23:39:22.968Z,8.04
2023-01-07T23:42:11.916Z,7.88
2023-01-07T23:45:07.046Z,7.96
2023-01-07T23:47:55.967Z,8.20
2023-01-07T23:50:38.256Z,8.29
2023-01-07T23:53:27.032Z,8.08
2023-01-07T23:56:09.271Z,8.25
2023-01-07T23:58:57.987Z,8.52
